Jeremoabo, Brazil
Current Conditions -  °F | °C
As of 6:00 AM on Saturday 29 Nov 2014 (Local Time) from SBAR Reporting Station
Scattered Clouds Scattered Clouds  
Wind Chill: 79°   Ceiling: Unl
Heat Index: 81°   Visibility: 6mi
Dew Point: 70°   Wind: 13mph
Humidity: 74%   Direction: 100°E
Pressure: 29.94"   Gusts: NA
Location:  10.08°S, 38.48°W
Report Text: SBAR 290900Z 10011KT 9999 SCT015 26/21 Q1014
Loading
Personal Weather Stations






























Interactive Weather Map New forecast layout! Learn more

10-Day Weather Forecast

Advertisements
Track Severe Weather on mobile